Impacts TAF Board
For situational awareness. Not to be used for flight planning purposes.
IDs:

KDEN - Denver Intl, CO, US

Issued at 0150 UTC 12 Dec 2018
Updated at 0300 UTC 12 Dec 2018
Potential Impact None Slight Moderate High
Time0253Z 12/03Z 12/04Z 12/05Z 12/06Z 12/07Z 12/08Z 12/09Z 12/10Z 12/11Z 12/12Z 12/13Z 12/14Z 12/15Z>>
Type OBS PRVL PRVL PRVL PRVL PRVL PRVL PRVL PRVL PRVL PRVL PRVL PRVL PRVL
VIS 10 >6 >6 >6 >6 >6 >6 >6 >6 >6 >6 >6 >6 >6
CIG -- -- -- -- -- -- -- -- -- -- -- -- -- --
Cover CLR FEW FEW FEW FEW FEW FEW FEW FEW FEW FEW FEW FEW FEW
FltCat VFR VFR VFR VFR VFR VFR VFR VFR VFR VFR VFR VFR VFR VFR
WX -- -- -- -- -- -- -- -- -- -- -- -- -- --
WDir 160 210 210 210 210 210 210 210 210 210 210 210 210 210
WSpd 14 10 10 10 10 10 10 10 10 10 10 10 10 10
WGst -- -- -- -- -- -- -- -- -- -- -- -- -- --
Raw TAF
KDEN 120150Z 1202/1306 14012KT P6SM FEW220
  FM120300 21010KT P6SM FEW220
  FM121600 22008KT P6SM SCT220
  FM121900 30010KT P6SM FEW120 BKN220
  FM122300 33012G25KT P6SM VCSH SCT070 BKN100 OVC150


Raw METAR
KDEN 120253Z 16014KT 10SM CLR M01/M10 A2993 RMK AO2 SLP146 T10111100 58007
KDEN 120153Z 16013KT 10SM CLR M01/M09 A2995 RMK AO2 SLP156 T10061094
KDEN 120053Z 14013KT 10SM FEW220 02/M10 A2996 RMK AO2 SLP148 T00171100
KDEN 112353Z 32003KT 10SM FEW220 09/M17 A2996 RMK AO2 SLP132 T00941172 10150 20089 51009

METAR Board
Radar Display
Forecast Discussion
For situational awareness. Not to be used for flight planning purposes.